Shonto, AZ (86054)

8:43 PM MST on March 03, 2015 (GMT -0700)
HADS USRCRN SITE AT NAVAJO NM NEAR KA AZ US | Change Station
CLOSE
Current Station
Personal Weather Station
Location: Shonto, AZ
Elevation: 7287 ft
Nearby Weather Stations

Elev 7287 ft 36.68 °N, 110.54 °W | Updated 274 days ago

Partly Cloudy
Partly Cloudy
37 °F
Feels Like 33 °F
N
6
Wind Variable Wind from SW
Gusts mph

Today
High -- | Low -- °F
--% Chance of Precip.
Yesterday
High -- | Low -- °F
Precip. -- in
6:50 AM 6:18 PM
Waxing Gibbous, 98% visible
Pressure 29.91 in
Visibility 10.0 miles
Clouds Clear
Windchill 33 °F
Dew Point 23 °F
Humidity 55%
Rainfall -999.00 in
Snow Depth Not available.
UV 0 out of 12
Pollen 4.40 out of 12
Air Quality Not available.
Flu Activity Not available.
METAR KBDG 040335Z AUTO 00000KT 10SM CLR 00/M01 A2991 RMK AO1 T10021015

More Conditions Fewer Conditions

Pressure 29.91 in
Visibility 10.0 miles
Clouds Clear
Windchill 33 °F
Dew Point 23 °F
Humidity 55%
Rainfall -999.00 in
Snow Depth Not available.
UV 0 out of 12
Pollen 4.40 out of 12
Air Quality Not available.
Flu Activity Not available.
METAR KBDG 040335Z AUTO 00000KT 10SM CLR 00/M01 A2991 RMK AO1 T10021015

More Conditions Fewer Conditions

10-Day Weather Forecast

Almanac

Astronomy

Mar. 03, 2015 Rise Set
Actual Time
Civil Twilight
Nautical Twilight
Astronomical Twilight
Moon
Length of Visible Light
Length of Day
Tomorrow will be .
, % of the Moon is Illuminated

Today's Extremes

State Highs State Lows

Community

WunderPhotos

Upload Photos

1,802,379 photos uploaded!

WunderBlogs® & News

Nearby

Air Quality

  Air Quality AQ Index Pollutant
Not available.

Snow Depth

Station Depth Elevation

Earthquake Activity

City Distance Mag. Time & Date
Minimum magnitude displayed is 2.5.

Coastal Water Temperatures

Place Temperature

Nearby Weather Stations